sensor_id;sensor_type;location;lat;lon;timestamp;pressure;altitude;pressure_sealevel;temperature;humidity
49216;BME280;45943;53.148;8.204;2023-03-13T00:01:26;100259.69;;;9.89;100.00
49216;BME280;45943;53.148;8.204;2023-03-13T00:03:57;100252.50;;;9.90;100.00
49216;BME280;45943;53.148;8.204;2023-03-13T00:06:28;100250.41;;;9.93;100.00
49216;BME280;45943;53.148;8.204;2023-03-13T00:08:58;100242.81;;;9.98;100.00
49216;BME280;45943;53.148;8.204;2023-03-13T00:11:25;100239.97;;;10.00;100.00
49216;BME280;45943;53.148;8.204;2023-03-13T00:13:53;100238.44;;;9.97;100.00
49216;BME280;45943;53.148;8.204;2023-03-13T00:16:20;100239.28;;;9.98;100.00
49216;BME280;45943;53.148;8.204;2023-03-13T00:18:48;100225.22;;;10.05;100.00
49216;BME280;45943;53.148;8.204;2023-03-13T00:21:16;100236.06;;;10.04;100.00
49216;BME280;45943;53.148;8.204;2023-03-13T00:23:43;100216.31;;;10.05;100.00
49216;BME280;45943;53.148;8.204;2023-03-13T00:26:11;100219.69;;;9.97;100.00
49216;BME280;45943;53.148;8.204;2023-03-13T00:28:40;100218.69;;;9.98;100.00
49216;BME280;45943;53.148;8.204;2023-03-13T00:31:09;100218.56;;;10.00;100.00
49216;BME280;45943;53.148;8.204;2023-03-13T00:33:41;100212.63;;;9.96;100.00
49216;BME280;45943;53.148;8.204;2023-03-13T00:36:10;100208.44;;;10.03;100.00
49216;BME280;45943;53.148;8.204;2023-03-13T00:38:38;100197.72;;;10.03;100.00
49216;BME280;45943;53.148;8.204;2023-03-13T00:41:09;100197.13;;;10.00;100.00
49216;BME280;45943;53.148;8.204;2023-03-13T00:43:37;100192.03;;;9.97;100.00
49216;BME280;45943;53.148;8.204;2023-03-13T00:46:04;100190.63;;;10.02;100.00
49216;BME280;45943;53.148;8.204;2023-03-13T00:48:31;100176.00;;;10.06;100.00
49216;BME280;45943;53.148;8.204;2023-03-13T00:51:00;100183.34;;;10.04;100.00
49216;BME280;45943;53.148;8.204;2023-03-13T00:53:26;100175.84;;;10.08;100.00
49216;BME280;45943;53.148;8.204;2023-03-13T00:58:21;100169.44;;;9.90;100.00
49216;BME280;45943;53.148;8.204;2023-03-13T01:00:49;100162.84;;;9.94;100.00
49216;BME280;45943;53.148;8.204;2023-03-13T01:03:15;100144.38;;;10.00;100.00
49216;BME280;45943;53.148;8.204;2023-03-13T01:05:41;100135.91;;;9.95;100.00
49216;BME280;45943;53.148;8.204;2023-03-13T01:08:07;100134.75;;;9.88;100.00
49216;BME280;45943;53.148;8.204;2023-03-13T01:10:33;100119.56;;;9.98;100.00
49216;BME280;45943;53.148;8.204;2023-03-13T01:13:00;100118.81;;;9.87;100.00
49216;BME280;45943;53.148;8.204;2023-03-13T01:15:26;100100.91;;;9.87;100.00
49216;BME280;45943;53.148;8.204;2023-03-13T01:17:52;100098.25;;;9.87;100.00
49216;BME280;45943;53.148;8.204;2023-03-13T01:20:18;100099.66;;;9.91;100.00
49216;BME280;45943;53.148;8.204;2023-03-13T01:22:44;100088.94;;;9.91;100.00
49216;BME280;45943;53.148;8.204;2023-03-13T01:25:10;100093.72;;;9.88;100.00
49216;BME280;45943;53.148;8.204;2023-03-13T01:27:36;100079.91;;;9.92;100.00
49216;BME280;45943;53.148;8.204;2023-03-13T01:30:02;100073.72;;;9.92;100.00
49216;BME280;45943;53.148;8.204;2023-03-13T01:32:28;100056.09;;;9.89;100.00
49216;BME280;45943;53.148;8.204;2023-03-13T01:34:57;100050.72;;;9.89;100.00
49216;BME280;45943;53.148;8.204;2023-03-13T01:37:23;100050.59;;;9.91;100.00
49216;BME280;45943;53.148;8.204;2023-03-13T01:39:49;100042.97;;;9.86;100.00
49216;BME280;45943;53.148;8.204;2023-03-13T01:42:15;100029.84;;;9.93;100.00
49216;BME280;45943;53.148;8.204;2023-03-13T01:44:54;100026.59;;;9.80;100.00
49216;BME280;45943;53.148;8.204;2023-03-13T01:47:23;100021.41;;;9.88;100.00
49216;BME280;45943;53.148;8.204;2023-03-13T01:49:49;100020.41;;;9.89;100.00
49216;BME280;45943;53.148;8.204;2023-03-13T01:52:21;100012.38;;;9.79;100.00
49216;BME280;45943;53.148;8.204;2023-03-13T01:54:52;100006.63;;;9.84;100.00
49216;BME280;45943;53.148;8.204;2023-03-13T01:57:32;99997.84;;;9.82;100.00
49216;BME280;45943;53.148;8.204;2023-03-13T02:00:10;99988.28;;;9.89;100.00
49216;BME280;45943;53.148;8.204;2023-03-13T02:02:46;99981.22;;;9.88;100.00
49216;BME280;45943;53.148;8.204;2023-03-13T02:05:15;99967.00;;;9.87;100.00
49216;BME280;45943;53.148;8.204;2023-03-13T02:07:46;99969.38;;;9.90;100.00
49216;BME280;45943;53.148;8.204;2023-03-13T02:10:15;99971.06;;;9.91;100.00
49216;BME280;45943;53.148;8.204;2023-03-13T02:12:42;99961.34;;;10.00;100.00
49216;BME280;45943;53.148;8.204;2023-03-13T02:15:14;99949.50;;;9.93;100.00
49216;BME280;45943;53.148;8.204;2023-03-13T02:17:42;99938.22;;;9.89;100.00
49216;BME280;45943;53.148;8.204;2023-03-13T02:20:10;99930.47;;;9.96;100.00
49216;BME280;45943;53.148;8.204;2023-03-13T02:22:48;99927.66;;;9.97;100.00
49216;BME280;45943;53.148;8.204;2023-03-13T02:27:44;99917.34;;;9.93;100.00
49216;BME280;45943;53.148;8.204;2023-03-13T02:30:12;99913.72;;;9.94;100.00
49216;BME280;45943;53.148;8.204;2023-03-13T02:32:39;99902.16;;;9.93;100.00
49216;BME280;45943;53.148;8.204;2023-03-13T02:35:07;99900.16;;;9.95;100.00
49216;BME280;45943;53.148;8.204;2023-03-13T02:37:35;99888.03;;;9.91;100.00
49216;BME280;45943;53.148;8.204;2023-03-13T02:40:03;99882.09;;;9.97;100.00
49216;BME280;45943;53.148;8.204;2023-03-13T02:42:35;99875.03;;;10.06;100.00
49216;BME280;45943;53.148;8.204;2023-03-13T02:45:03;99873.66;;;9.83;100.00
49216;BME280;45943;53.148;8.204;2023-03-13T02:47:30;99860.41;;;9.91;100.00
49216;BME280;45943;53.148;8.204;2023-03-13T02:49:56;99857.56;;;9.92;100.00
49216;BME280;45943;53.148;8.204;2023-03-13T02:52:23;99856.59;;;9.93;100.00
49216;BME280;45943;53.148;8.204;2023-03-13T02:54:57;99854.63;;;9.95;100.00
49216;BME280;45943;53.148;8.204;2023-03-13T02:57:27;99829.91;;;10.01;100.00
49216;BME280;45943;53.148;8.204;2023-03-13T02:59:54;99828.69;;;9.96;100.00
49216;BME280;45943;53.148;8.204;2023-03-13T03:02:20;99833.19;;;9.95;100.00
49216;BME280;45943;53.148;8.204;2023-03-13T03:04:45;99814.97;;;9.99;100.00
49216;BME280;45943;53.148;8.204;2023-03-13T03:07:12;99806.78;;;10.00;100.00
49216;BME280;45943;53.148;8.204;2023-03-13T03:09:38;99803.13;;;10.01;100.00
49216;BME280;45943;53.148;8.204;2023-03-13T03:12:04;99800.47;;;9.92;100.00
49216;BME280;45943;53.148;8.204;2023-03-13T03:14:30;99787.81;;;9.94;100.00
49216;BME280;45943;53.148;8.204;2023-03-13T03:16:56;99779.19;;;9.90;100.00
49216;BME280;45943;53.148;8.204;2023-03-13T03:19:22;99783.25;;;10.04;100.00
49216;BME280;45943;53.148;8.204;2023-03-13T03:21:48;99767.22;;;9.94;100.00
49216;BME280;45943;53.148;8.204;2023-03-13T03:24:14;99761.13;;;9.92;100.00
49216;BME280;45943;53.148;8.204;2023-03-13T03:26:40;99755.19;;;9.98;100.00
49216;BME280;45943;53.148;8.204;2023-03-13T03:29:06;99743.69;;;9.88;100.00
49216;BME280;45943;53.148;8.204;2023-03-13T03:31:32;99749.34;;;9.85;100.00
49216;BME280;45943;53.148;8.204;2023-03-13T03:33:59;99736.78;;;9.86;100.00
49216;BME280;45943;53.148;8.204;2023-03-13T03:36:25;99718.16;;;9.94;100.00
49216;BME280;45943;53.148;8.204;2023-03-13T03:38:51;99714.03;;;9.99;100.00
49216;BME280;45943;53.148;8.204;2023-03-13T03:41:17;99714.59;;;10.03;100.00
49216;BME280;45943;53.148;8.204;2023-03-13T03:43:44;99711.69;;;9.87;100.00
49216;BME280;45943;53.148;8.204;2023-03-13T03:46:12;99701.63;;;9.98;100.00
49216;BME280;45943;53.148;8.204;2023-03-13T03:48:39;99693.28;;;10.01;100.00
49216;BME280;45943;53.148;8.204;2023-03-13T03:51:06;99693.69;;;10.06;100.00
49216;BME280;45943;53.148;8.204;2023-03-13T03:53:32;99683.50;;;10.10;100.00
49216;BME280;45943;53.148;8.204;2023-03-13T03:55:58;99675.31;;;10.12;100.00
49216;BME280;45943;53.148;8.204;2023-03-13T03:58:24;99674.25;;;10.04;100.00
49216;BME280;45943;53.148;8.204;2023-03-13T04:00:50;99670.13;;;10.10;100.00
49216;BME280;45943;53.148;8.204;2023-03-13T04:03:16;99663.97;;;10.00;100.00
49216;BME280;45943;53.148;8.204;2023-03-13T04:05:42;99650.13;;;10.04;100.00
49216;BME280;45943;53.148;8.204;2023-03-13T04:08:09;99642.25;;;10.03;100.00
49216;BME280;45943;53.148;8.204;2023-03-13T04:10:35;99639.91;;;10.18;100.00
49216;BME280;45943;53.148;8.204;2023-03-13T04:13:01;99622.13;;;10.17;100.00
49216;BME280;45943;53.148;8.204;2023-03-13T04:15:27;99626.97;;;10.13;100.00
49216;BME280;45943;53.148;8.204;2023-03-13T04:17:53;99615.94;;;10.16;100.00
49216;BME280;45943;53.148;8.204;2023-03-13T04:20:19;99609.69;;;10.25;100.00
49216;BME280;45943;53.148;8.204;2023-03-13T04:22:45;99598.09;;;10.07;100.00
49216;BME280;45943;53.148;8.204;2023-03-13T04:25:11;99592.34;;;10.20;100.00
49216;BME280;45943;53.148;8.204;2023-03-13T04:27:37;99589.72;;;10.10;100.00
49216;BME280;45943;53.148;8.204;2023-03-13T04:30:03;99589.47;;;10.31;100.00
49216;BME280;45943;53.148;8.204;2023-03-13T04:32:29;99587.94;;;10.28;100.00
49216;BME280;45943;53.148;8.204;2023-03-13T04:34:55;99574.03;;;10.43;100.00
49216;BME280;45943;53.148;8.204;2023-03-13T04:37:21;99580.91;;;10.27;100.00
49216;BME280;45943;53.148;8.204;2023-03-13T04:39:47;99583.69;;;10.36;100.00
49216;BME280;45943;53.148;8.204;2023-03-13T04:42:13;99587.34;;;10.34;100.00
49216;BME280;45943;53.148;8.204;2023-03-13T04:44:39;99578.31;;;10.36;100.00
49216;BME280;45943;53.148;8.204;2023-03-13T04:47:05;99572.41;;;10.50;100.00
49216;BME280;45943;53.148;8.204;2023-03-13T04:49:31;99562.34;;;10.52;100.00
49216;BME280;45943;53.148;8.204;2023-03-13T04:51:57;99552.09;;;10.47;100.00
49216;BME280;45943;53.148;8.204;2023-03-13T04:54:23;99555.03;;;10.54;100.00
49216;BME280;45943;53.148;8.204;2023-03-13T04:56:49;99549.19;;;10.58;100.00
49216;BME280;45943;53.148;8.204;2023-03-13T04:59:15;99545.13;;;10.54;100.00
49216;BME280;45943;53.148;8.204;2023-03-13T05:01:41;99538.00;;;10.63;100.00
49216;BME280;45943;53.148;8.204;2023-03-13T05:04:08;99523.38;;;10.57;100.00
49216;BME280;45943;53.148;8.204;2023-03-13T05:06:35;99520.97;;;10.72;100.00
49216;BME280;45943;53.148;8.204;2023-03-13T05:09:01;99513.44;;;10.76;100.00
49216;BME280;45943;53.148;8.204;2023-03-13T05:11:27;99517.81;;;10.77;100.00
49216;BME280;45943;53.148;8.204;2023-03-13T05:13:54;99492.84;;;10.76;100.00
49216;BME280;45943;53.148;8.204;2023-03-13T05:16:19;99500.38;;;10.81;100.00
49216;BME280;45943;53.148;8.204;2023-03-13T05:18:45;99501.63;;;10.86;100.00
49216;BME280;45943;53.148;8.204;2023-03-13T05:21:12;99483.78;;;10.77;100.00
49216;BME280;45943;53.148;8.204;2023-03-13T05:23:38;99482.22;;;10.93;100.00
49216;BME280;45943;53.148;8.204;2023-03-13T05:26:04;99475.41;;;10.80;100.00
49216;BME280;45943;53.148;8.204;2023-03-13T05:28:30;99483.41;;;10.98;100.00
49216;BME280;45943;53.148;8.204;2023-03-13T05:30:56;99481.56;;;10.99;100.00
49216;BME280;45943;53.148;8.204;2023-03-13T05:33:22;99484.06;;;11.00;100.00
49216;BME280;45943;53.148;8.204;2023-03-13T05:35:48;99478.41;;;11.03;100.00
49216;BME280;45943;53.148;8.204;2023-03-13T05:38:14;99468.69;;;11.10;100.00
49216;BME280;45943;53.148;8.204;2023-03-13T05:40:40;99467.22;;;11.16;100.00
49216;BME280;45943;53.148;8.204;2023-03-13T05:43:06;99464.72;;;11.14;100.00
49216;BME280;45943;53.148;8.204;2023-03-13T05:45:32;99459.69;;;11.19;100.00
49216;BME280;45943;53.148;8.204;2023-03-13T05:47:58;99445.63;;;11.26;100.00
49216;BME280;45943;53.148;8.204;2023-03-13T05:50:24;99448.16;;;11.27;100.00
49216;BME280;45943;53.148;8.204;2023-03-13T05:52:50;99427.53;;;11.36;100.00
49216;BME280;45943;53.148;8.204;2023-03-13T05:55:17;99433.22;;;11.25;100.00
49216;BME280;45943;53.148;8.204;2023-03-13T05:57:44;99427.22;;;11.31;100.00
49216;BME280;45943;53.148;8.204;2023-03-13T06:00:11;99425.03;;;11.34;100.00
49216;BME280;45943;53.148;8.204;2023-03-13T06:02:38;99410.25;;;11.38;100.00
49216;BME280;45943;53.148;8.204;2023-03-13T06:05:04;99413.34;;;11.52;100.00
49216;BME280;45943;53.148;8.204;2023-03-13T06:07:30;99416.31;;;11.48;100.00
49216;BME280;45943;53.148;8.204;2023-03-13T06:09:56;99404.63;;;11.66;100.00
49216;BME280;45943;53.148;8.204;2023-03-13T06:12:22;99401.25;;;11.56;100.00
49216;BME280;45943;53.148;8.204;2023-03-13T06:14:48;99391.53;;;11.71;100.00
49216;BME280;45943;53.148;8.204;2023-03-13T06:17:14;99385.34;;;11.70;100.00
49216;BME280;45943;53.148;8.204;2023-03-13T06:19:40;99390.19;;;11.75;100.00
49216;BME280;45943;53.148;8.204;2023-03-13T06:22:06;99388.34;;;11.67;100.00
49216;BME280;45943;53.148;8.204;2023-03-13T06:24:32;99402.28;;;11.71;100.00
49216;BME280;45943;53.148;8.204;2023-03-13T06:26:58;99398.91;;;11.69;100.00
49216;BME280;45943;53.148;8.204;2023-03-13T06:29:24;99402.84;;;11.83;100.00
49216;BME280;45943;53.148;8.204;2023-03-13T06:31:50;99392.59;;;11.86;100.00
49216;BME280;45943;53.148;8.204;2023-03-13T06:34:16;99388.41;;;11.92;100.00
49216;BME280;45943;53.148;8.204;2023-03-13T06:36:43;99394.94;;;11.97;100.00
49216;BME280;45943;53.148;8.204;2023-03-13T06:39:12;99388.72;;;12.05;100.00
49216;BME280;45943;53.148;8.204;2023-03-13T06:41:38;99382.00;;;12.17;100.00
49216;BME280;45943;53.148;8.204;2023-03-13T06:44:04;99376.28;;;12.20;100.00
49216;BME280;45943;53.148;8.204;2023-03-13T06:46:30;99374.63;;;12.19;100.00
49216;BME280;45943;53.148;8.204;2023-03-13T06:48:56;99390.06;;;12.25;100.00
49216;BME280;45943;53.148;8.204;2023-03-13T06:51:23;99374.41;;;12.29;100.00
49216;BME280;45943;53.148;8.204;2023-03-13T06:53:50;99378.28;;;12.43;100.00
49216;BME280;45943;53.148;8.204;2023-03-13T06:56:17;99375.09;;;12.31;100.00
49216;BME280;45943;53.148;8.204;2023-03-13T06:58:49;99372.06;;;12.34;100.00
49216;BME280;45943;53.148;8.204;2023-03-13T07:01:16;99364.84;;;12.34;100.00
49216;BME280;45943;53.148;8.204;2023-03-13T07:03:42;99370.19;;;12.51;100.00
49216;BME280;45943;53.148;8.204;2023-03-13T07:06:09;99370.84;;;12.53;100.00
49216;BME280;45943;53.148;8.204;2023-03-13T07:08:36;99363.13;;;12.50;100.00
49216;BME280;45943;53.148;8.204;2023-03-13T07:11:04;99364.78;;;12.59;100.00
49216;BME280;45943;53.148;8.204;2023-03-13T07:13:32;99364.75;;;12.67;100.00
49216;BME280;45943;53.148;8.204;2023-03-13T07:15:58;99364.91;;;12.66;100.00
49216;BME280;45943;53.148;8.204;2023-03-13T07:18:25;99374.84;;;12.57;100.00
49216;BME280;45943;53.148;8.204;2023-03-13T07:20:52;99373.50;;;12.69;100.00
49216;BME280;45943;53.148;8.204;2023-03-13T07:23:20;99373.16;;;12.72;100.00
49216;BME280;45943;53.148;8.204;2023-03-13T07:28:20;99377.31;;;12.83;100.00
49216;BME280;45943;53.148;8.204;2023-03-13T07:30:47;99371.59;;;12.78;100.00
49216;BME280;45943;53.148;8.204;2023-03-13T07:33:13;99371.09;;;12.82;100.00
49216;BME280;45943;53.148;8.204;2023-03-13T07:35:39;99380.66;;;12.85;100.00
49216;BME280;45943;53.148;8.204;2023-03-13T07:38:05;99378.19;;;12.75;100.00
49216;BME280;45943;53.148;8.204;2023-03-13T07:40:31;99376.63;;;12.89;100.00
49216;BME280;45943;53.148;8.204;2023-03-13T07:42:57;99373.75;;;12.90;100.00
49216;BME280;45943;53.148;8.204;2023-03-13T07:45:23;99364.81;;;12.98;100.00
49216;BME280;45943;53.148;8.204;2023-03-13T07:47:49;99369.34;;;12.98;100.00
49216;BME280;45943;53.148;8.204;2023-03-13T07:50:15;99361.94;;;13.00;100.00
49216;BME280;45943;53.148;8.204;2023-03-13T07:52:41;99368.66;;;13.04;100.00
49216;BME280;45943;53.148;8.204;2023-03-13T07:55:07;99366.13;;;13.02;100.00
49216;BME280;45943;53.148;8.204;2023-03-13T07:57:33;99358.22;;;13.09;100.00
49216;BME280;45943;53.148;8.204;2023-03-13T07:59:59;99352.09;;;13.23;100.00
49216;BME280;45943;53.148;8.204;2023-03-13T08:02:25;99358.13;;;13.25;100.00
49216;BME280;45943;53.148;8.204;2023-03-13T08:04:51;99372.31;;;13.19;100.00
49216;BME280;45943;53.148;8.204;2023-03-13T08:07:18;99359.00;;;13.17;100.00
49216;BME280;45943;53.148;8.204;2023-03-13T08:09:44;99350.31;;;13.38;100.00
49216;BME280;45943;53.148;8.204;2023-03-13T08:12:10;99348.16;;;13.34;100.00
49216;BME280;45943;53.148;8.204;2023-03-13T08:14:36;99357.84;;;13.20;100.00
49216;BME280;45943;53.148;8.204;2023-03-13T08:17:02;99341.97;;;13.25;100.00
49216;BME280;45943;53.148;8.204;2023-03-13T08:19:28;99365.19;;;13.26;100.00
49216;BME280;45943;53.148;8.204;2023-03-13T08:21:54;99362.63;;;13.33;100.00
49216;BME280;45943;53.148;8.204;2023-03-13T08:24:20;99366.03;;;13.27;100.00
49216;BME280;45943;53.148;8.204;2023-03-13T08:26:46;99354.78;;;13.23;100.00
49216;BME280;45943;53.148;8.204;2023-03-13T08:29:13;99361.19;;;13.14;100.00
49216;BME280;45943;53.148;8.204;2023-03-13T08:31:46;99356.16;;;13.11;100.00
49216;BME280;45943;53.148;8.204;2023-03-13T08:34:14;99351.25;;;13.23;100.00
49216;BME280;45943;53.148;8.204;2023-03-13T08:36:42;99341.63;;;13.28;100.00
49216;BME280;45943;53.148;8.204;2023-03-13T08:39:15;99343.59;;;13.34;100.00
49216;BME280;45943;53.148;8.204;2023-03-13T08:41:42;99338.41;;;13.33;100.00
49216;BME280;45943;53.148;8.204;2023-03-13T08:44:09;99342.91;;;13.40;100.00
49216;BME280;45943;53.148;8.204;2023-03-13T08:46:37;99332.50;;;13.37;100.00
49216;BME280;45943;53.148;8.204;2023-03-13T08:49:04;99345.00;;;13.30;100.00
49216;BME280;45943;53.148;8.204;2023-03-13T08:51:32;99353.06;;;13.30;100.00
49216;BME280;45943;53.148;8.204;2023-03-13T08:53:59;99344.22;;;13.44;100.00
49216;BME280;45943;53.148;8.204;2023-03-13T08:56:28;99353.13;;;13.45;100.00
49216;BME280;45943;53.148;8.204;2023-03-13T08:58:56;99347.22;;;13.49;100.00
49216;BME280;45943;53.148;8.204;2023-03-13T09:01:25;99344.16;;;13.53;100.00
49216;BME280;45943;53.148;8.204;2023-03-13T09:03:53;99356.31;;;13.48;100.00
49216;BME280;45943;53.148;8.204;2023-03-13T09:06:19;99354.69;;;13.62;100.00
49216;BME280;45943;53.148;8.204;2023-03-13T09:08:46;99357.34;;;13.47;100.00
49216;BME280;45943;53.148;8.204;2023-03-13T09:11:13;99353.03;;;13.61;100.00
49216;BME280;45943;53.148;8.204;2023-03-13T09:13:45;99353.81;;;13.70;100.00
49216;BME280;45943;53.148;8.204;2023-03-13T09:16:14;99363.44;;;13.64;100.00
49216;BME280;45943;53.148;8.204;2023-03-13T09:18:42;99358.09;;;13.56;100.00
49216;BME280;45943;53.148;8.204;2023-03-13T09:21:09;99370.13;;;13.45;100.00
49216;BME280;45943;53.148;8.204;2023-03-13T09:23:37;99379.72;;;13.48;100.00
49216;BME280;45943;53.148;8.204;2023-03-13T09:26:03;99384.28;;;13.47;100.00
49216;BME280;45943;53.148;8.204;2023-03-13T09:28:30;99388.66;;;13.48;100.00
49216;BME280;45943;53.148;8.204;2023-03-13T09:30:56;99393.03;;;13.49;100.00
49216;BME280;45943;53.148;8.204;2023-03-13T09:33:32;99372.66;;;13.70;100.00
49216;BME280;45943;53.148;8.204;2023-03-13T09:35:58;99387.94;;;13.77;100.00
49216;BME280;45943;53.148;8.204;2023-03-13T09:38:24;99366.78;;;13.89;100.00
49216;BME280;45943;53.148;8.204;2023-03-13T09:40:51;99372.66;;;13.93;100.00
49216;BME280;45943;53.148;8.204;2023-03-13T09:46:02;99345.88;;;13.91;100.00
49216;BME280;45943;53.148;8.204;2023-03-13T09:48:36;99343.91;;;14.08;100.00
49216;BME280;45943;53.148;8.204;2023-03-13T09:51:10;99360.16;;;14.15;100.00
49216;BME280;45943;53.148;8.204;2023-03-13T09:53:45;99347.63;;;14.07;100.00
49216;BME280;45943;53.148;8.204;2023-03-13T09:56:19;99325.94;;;14.15;100.00
49216;BME280;45943;53.148;8.204;2023-03-13T09:58:51;99332.34;;;14.14;100.00
49216;BME280;45943;53.148;8.204;2023-03-13T10:01:23;99342.31;;;14.14;100.00
49216;BME280;45943;53.148;8.204;2023-03-13T10:04:01;99343.81;;;14.16;100.00
49216;BME280;45943;53.148;8.204;2023-03-13T10:06:43;99339.16;;;14.25;100.00
49216;BME280;45943;53.148;8.204;2023-03-13T10:09:18;99346.63;;;14.38;100.00
49216;BME280;45943;53.148;8.204;2023-03-13T10:11:52;99345.03;;;14.43;100.00
49216;BME280;45943;53.148;8.204;2023-03-13T10:14:42;99326.72;;;14.39;100.00
49216;BME280;45943;53.148;8.204;2023-03-13T10:17:19;99329.25;;;14.55;100.00
49216;BME280;45943;53.148;8.204;2023-03-13T10:20:12;99330.31;;;14.69;100.00
49216;BME280;45943;53.148;8.204;2023-03-13T10:22:46;99341.06;;;14.54;100.00
49216;BME280;45943;53.148;8.204;2023-03-13T10:25:20;99327.03;;;14.58;100.00
49216;BME280;45943;53.148;8.204;2023-03-13T10:27:52;99333.84;;;14.69;100.00
49216;BME280;45943;53.148;8.204;2023-03-13T10:35:36;99316.19;;;15.03;100.00
49216;BME280;45943;53.148;8.204;2023-03-13T10:38:17;99336.50;;;14.99;100.00
49216;BME280;45943;53.148;8.204;2023-03-13T10:40:58;99312.28;;;15.05;100.00
49216;BME280;45943;53.148;8.204;2023-03-13T10:43:27;99309.66;;;15.12;100.00
49216;BME280;45943;53.148;8.204;2023-03-13T10:45:55;99309.28;;;15.15;100.00
49216;BME280;45943;53.148;8.204;2023-03-13T10:48:22;99318.13;;;15.09;100.00
49216;BME280;45943;53.148;8.204;2023-03-13T10:50:54;99313.75;;;15.08;100.00
49216;BME280;45943;53.148;8.204;2023-03-13T10:56:14;99304.44;;;15.10;100.00
49216;BME280;45943;53.148;8.204;2023-03-13T10:58:45;99318.81;;;14.96;100.00
49216;BME280;45943;53.148;8.204;2023-03-13T11:03:57;99316.81;;;15.19;100.00
49216;BME280;45943;53.148;8.204;2023-03-13T11:06:32;99318.47;;;15.57;100.00
49216;BME280;45943;53.148;8.204;2023-03-13T11:11:29;99338.19;;;15.36;100.00
49216;BME280;45943;53.148;8.204;2023-03-13T11:14:11;99307.06;;;15.40;100.00
49216;BME280;45943;53.148;8.204;2023-03-13T11:16:45;99323.19;;;15.33;100.00
49216;BME280;45943;53.148;8.204;2023-03-13T11:32:18;99295.81;;;15.36;100.00
49216;BME280;45943;53.148;8.204;2023-03-13T11:34:50;99300.72;;;15.33;100.00
49216;BME280;45943;53.148;8.204;2023-03-13T11:37:24;99293.41;;;15.48;100.00
49216;BME280;45943;53.148;8.204;2023-03-13T11:42:59;99289.28;;;15.52;100.00
49216;BME280;45943;53.148;8.204;2023-03-13T11:56:42;99258.16;;;16.75;100.00
49216;BME280;45943;53.148;8.204;2023-03-13T12:01:59;99247.97;;;16.77;100.00
49216;BME280;45943;53.148;8.204;2023-03-13T12:04:36;99254.75;;;17.14;100.00
49216;BME280;45943;53.148;8.204;2023-03-13T12:07:09;99247.91;;;17.31;100.00
49216;BME280;45943;53.148;8.204;2023-03-13T12:09:50;99244.34;;;17.17;100.00
49216;BME280;45943;53.148;8.204;2023-03-13T12:15:14;99236.03;;;17.39;100.00
49216;BME280;45943;53.148;8.204;2023-03-13T12:20:38;99233.72;;;17.29;100.00
49216;BME280;45943;53.148;8.204;2023-03-13T12:23:19;99213.50;;;17.38;100.00
49216;BME280;45943;53.148;8.204;2023-03-13T12:25:50;99237.06;;;17.38;100.00
49216;BME280;45943;53.148;8.204;2023-03-13T12:28:36;99207.84;;;17.20;100.00
49216;BME280;45943;53.148;8.204;2023-03-13T12:36:37;99207.91;;;17.93;100.00
49216;BME280;45943;53.148;8.204;2023-03-13T12:39:30;99187.66;;;18.02;100.00
49216;BME280;45943;53.148;8.204;2023-03-13T12:42:12;99192.28;;;17.75;100.00
49216;BME280;45943;53.148;8.204;2023-03-13T12:44:41;99174.94;;;17.69;100.00
49216;BME280;45943;53.148;8.204;2023-03-13T12:47:29;99174.75;;;17.84;100.00
49216;BME280;45943;53.148;8.204;2023-03-13T12:50:01;99169.28;;;17.97;100.00
49216;BME280;45943;53.148;8.204;2023-03-13T13:01:01;99150.66;;;18.14;100.00
49216;BME280;45943;53.148;8.204;2023-03-13T13:03:35;99135.44;;;18.13;100.00
49216;BME280;45943;53.148;8.204;2023-03-13T13:08:37;99126.47;;;18.57;100.00
49216;BME280;45943;53.148;8.204;2023-03-13T13:13:59;99141.09;;;18.12;100.00
49216;BME280;45943;53.148;8.204;2023-03-13T13:16:26;99122.38;;;18.42;100.00
49216;BME280;45943;53.148;8.204;2023-03-13T13:18:54;99115.91;;;18.36;100.00
49216;BME280;45943;53.148;8.204;2023-03-13T13:21:21;99119.06;;;18.33;100.00
49216;BME280;45943;53.148;8.204;2023-03-13T13:23:51;99118.78;;;18.48;100.00
49216;BME280;45943;53.148;8.204;2023-03-13T13:36:55;99096.41;;;18.08;100.00
49216;BME280;45943;53.148;8.204;2023-03-13T13:39:39;99097.50;;;18.00;100.00
49216;BME280;45943;53.148;8.204;2023-03-13T13:47:39;99097.59;;;18.63;93.82
49216;BME280;45943;53.148;8.204;2023-03-13T13:52:46;99085.31;;;18.60;94.72
49216;BME280;45943;53.148;8.204;2023-03-13T13:55:29;99076.94;;;18.69;100.00
49216;BME280;45943;53.148;8.204;2023-03-13T13:58:02;99071.63;;;18.42;100.00
49216;BME280;45943;53.148;8.204;2023-03-13T14:00:47;99079.63;;;18.30;100.00
49216;BME280;45943;53.148;8.204;2023-03-13T14:03:23;99055.13;;;18.37;100.00
49216;BME280;45943;53.148;8.204;2023-03-13T14:05:53;99088.53;;;18.38;100.00
49216;BME280;45943;53.148;8.204;2023-03-13T14:08:23;99061.00;;;18.41;100.00
49216;BME280;45943;53.148;8.204;2023-03-13T14:11:02;99073.16;;;18.63;100.00
49216;BME280;45943;53.148;8.204;2023-03-13T14:13:35;99061.63;;;18.74;100.00
49216;BME280;45943;53.148;8.204;2023-03-13T14:16:35;99056.78;;;18.45;100.00
49216;BME280;45943;53.148;8.204;2023-03-13T14:18:53;99054.03;;;18.83;100.00
49216;BME280;45943;53.148;8.204;2023-03-13T14:21:20;99047.41;;;18.79;100.00
49216;BME280;45943;53.148;8.204;2023-03-13T14:23:51;99070.09;;;18.91;100.00
49216;BME280;45943;53.148;8.204;2023-03-13T14:26:18;99069.56;;;18.76;100.00
49216;BME280;45943;53.148;8.204;2023-03-13T14:28:54;99039.31;;;18.66;100.00
49216;BME280;45943;53.148;8.204;2023-03-13T14:31:34;99043.72;;;18.67;100.00
49216;BME280;45943;53.148;8.204;2023-03-13T14:34:03;99031.47;;;18.51;100.00
49216;BME280;45943;53.148;8.204;2023-03-13T14:39:19;99032.25;;;18.58;100.00